createdAt,value
2018-07-06T00:00:10.292Z,984.32
2018-07-06T00:01:10.258Z,984.29
2018-07-06T00:02:10.225Z,984.29
2018-07-06T00:03:10.201Z,984.24
2018-07-06T00:04:10.158Z,984.31
2018-07-06T00:05:10.129Z,984.28
2018-07-06T00:06:10.095Z,984.31
2018-07-06T00:07:10.064Z,984.28
2018-07-06T00:08:10.033Z,984.30
2018-07-06T00:09:10.004Z,984.28
2018-07-06T00:10:09.965Z,984.28
2018-07-06T00:11:09.930Z,984.29
2018-07-06T00:12:09.902Z,984.27
2018-07-06T00:13:09.868Z,984.29
2018-07-06T00:14:09.832Z,984.28
2018-07-06T00:15:09.797Z,984.30
2018-07-06T00:16:09.765Z,984.30
2018-07-06T00:17:09.737Z,984.30
2018-07-06T00:18:09.712Z,984.27
2018-07-06T00:19:09.683Z,984.32
2018-07-06T00:20:09.654Z,984.28
2018-07-06T00:21:09.608Z,984.31
2018-07-06T00:22:09.575Z,984.28
2018-07-06T00:23:09.538Z,984.33
2018-07-06T00:24:09.508Z,984.32
2018-07-06T00:25:09.476Z,984.34
2018-07-06T00:26:09.445Z,984.32
2018-07-06T00:27:09.417Z,984.32
2018-07-06T00:28:09.378Z,984.31
2018-07-06T00:29:09.347Z,984.29
2018-07-06T00:30:09.316Z,984.29
2018-07-06T00:31:09.285Z,984.34
2018-07-06T00:32:09.271Z,984.31
2018-07-06T00:33:09.216Z,984.33
2018-07-06T00:34:09.181Z,984.28
2018-07-06T00:35:09.152Z,984.28
2018-07-06T00:36:09.113Z,984.30
2018-07-06T00:37:09.085Z,984.27
2018-07-06T00:38:09.053Z,984.31
2018-07-06T00:39:09.033Z,984.27
2018-07-06T00:40:08.991Z,984.30
2018-07-06T00:41:08.960Z,984.24
2018-07-06T00:42:08.917Z,984.28
2018-07-06T00:43:08.889Z,984.28
2018-07-06T00:44:08.863Z,984.25
2018-07-06T00:45:08.827Z,984.25
2018-07-06T00:46:08.792Z,984.29
2018-07-06T00:47:08.754Z,984.26
2018-07-06T00:48:08.723Z,984.29
2018-07-06T00:49:08.693Z,984.30
2018-07-06T00:50:08.662Z,984.33
2018-07-06T00:51:08.661Z,984.34
2018-07-06T00:52:08.627Z,984.35
2018-07-06T00:53:08.567Z,984.36
2018-07-06T00:54:08.531Z,984.30
2018-07-06T00:55:08.501Z,984.36
2018-07-06T00:56:08.465Z,984.36
2018-07-06T00:57:08.439Z,984.34
2018-07-06T00:58:08.401Z,984.34
2018-07-06T00:59:08.371Z,984.35
2018-07-06T01:00:08.336Z,984.36
2018-07-06T01:01:08.302Z,984.34
2018-07-06T01:02:08.272Z,984.37
2018-07-06T01:03:08.239Z,984.42
2018-07-06T01:04:08.208Z,984.41
2018-07-06T01:05:08.175Z,984.42
2018-07-06T01:06:08.140Z,984.45
2018-07-06T01:07:08.104Z,984.47
2018-07-06T01:08:08.073Z,984.45
2018-07-06T01:09:08.041Z,984.45
2018-07-06T01:10:08.025Z,984.45
2018-07-06T01:11:07.979Z,984.45
2018-07-06T01:12:07.947Z,984.46
2018-07-06T01:13:07.913Z,984.46
2018-07-06T01:14:07.876Z,984.44
2018-07-06T01:15:07.849Z,984.48
2018-07-06T01:16:07.815Z,984.43
2018-07-06T01:17:07.780Z,984.48
2018-07-06T01:18:07.746Z,984.49
2018-07-06T01:19:07.712Z,984.44
2018-07-06T01:20:07.679Z,984.48
2018-07-06T01:21:07.649Z,984.48
2018-07-06T01:22:07.619Z,984.49
2018-07-06T01:23:07.584Z,984.47
2018-07-06T01:24:07.555Z,984.48
2018-07-06T01:25:07.520Z,984.49
2018-07-06T01:26:07.483Z,984.51
2018-07-06T01:27:07.445Z,984.51
2018-07-06T01:28:07.413Z,984.48
2018-07-06T01:29:07.383Z,984.52
2018-07-06T01:30:07.370Z,984.54
2018-07-06T01:31:07.333Z,984.53
2018-07-06T01:32:07.282Z,984.56
2018-07-06T01:33:07.252Z,984.54
2018-07-06T01:34:07.221Z,984.55
2018-07-06T01:35:07.190Z,984.61
2018-07-06T01:36:07.155Z,984.56
2018-07-06T01:37:07.122Z,984.55
2018-07-06T01:38:07.088Z,984.58
2018-07-06T01:39:07.052Z,984.58
2018-07-06T01:40:07.019Z,984.64
2018-07-06T01:41:06.987Z,984.61
2018-07-06T01:42:06.959Z,984.66
2018-07-06T01:43:06.926Z,984.66
2018-07-06T01:44:06.891Z,984.62
2018-07-06T01:45:06.857Z,984.66
2018-07-06T01:46:06.820Z,984.61
2018-07-06T01:47:06.787Z,984.65
2018-07-06T01:48:06.758Z,984.66
2018-07-06T01:49:06.724Z,984.61
2018-07-06T01:50:06.694Z,984.64
2018-07-06T01:51:06.679Z,984.65
2018-07-06T01:52:06.619Z,984.64
2018-07-06T01:53:06.591Z,984.64
2018-07-06T01:54:06.558Z,984.64
2018-07-06T01:55:06.527Z,984.61
2018-07-06T01:56:06.490Z,984.61
2018-07-06T01:57:06.460Z,984.63
2018-07-06T01:58:06.422Z,984.60
2018-07-06T01:59:06.386Z,984.59
2018-07-06T02:00:06.351Z,984.57
2018-07-06T02:01:06.325Z,984.54
2018-07-06T02:02:06.292Z,984.56
2018-07-06T02:03:06.257Z,984.55
2018-07-06T02:04:06.219Z,984.57
2018-07-06T02:05:06.189Z,984.60
2018-07-06T02:06:06.155Z,984.58
2018-07-06T02:07:06.125Z,984.59
2018-07-06T02:08:06.094Z,984.62
2018-07-06T02:09:06.057Z,984.60
2018-07-06T02:10:06.028Z,984.58
2018-07-06T02:11:05.984Z,984.58
2018-07-06T02:12:05.949Z,984.57
2018-07-06T02:13:05.920Z,984.56
2018-07-06T02:14:05.889Z,984.55
2018-07-06T02:15:05.857Z,984.51
2018-07-06T02:16:05.825Z,984.54
2018-07-06T02:17:05.786Z,984.51
2018-07-06T02:18:05.754Z,984.56
2018-07-06T02:19:05.718Z,984.55
2018-07-06T02:20:05.691Z,984.59
2018-07-06T02:21:05.661Z,984.58
2018-07-06T02:22:05.621Z,984.56
2018-07-06T02:23:05.585Z,984.58
2018-07-06T02:24:05.548Z,984.59
2018-07-06T02:25:05.519Z,984.62
2018-07-06T02:26:05.488Z,984.62
2018-07-06T02:27:05.455Z,984.64
2018-07-06T02:28:05.417Z,984.62
2018-07-06T02:29:05.386Z,984.61
2018-07-06T02:30:05.353Z,984.63
2018-07-06T02:31:05.324Z,984.66
2018-07-06T02:32:05.292Z,984.68
2018-07-06T02:33:05.257Z,984.71
2018-07-06T02:34:05.216Z,984.69
2018-07-06T02:35:05.183Z,984.68
2018-07-06T02:36:05.154Z,984.67
2018-07-06T02:37:05.120Z,984.70
2018-07-06T02:38:05.084Z,984.66
2018-07-06T02:39:05.049Z,984.75
2018-07-06T02:40:05.015Z,984.72
2018-07-06T02:41:04.983Z,984.75
2018-07-06T02:42:04.951Z,984.78
2018-07-06T02:43:04.918Z,984.82
2018-07-06T02:44:04.884Z,984.79
2018-07-06T02:45:04.847Z,984.82
2018-07-06T02:46:04.814Z,984.84
2018-07-06T02:47:04.777Z,984.83
2018-07-06T02:48:04.741Z,984.87
2018-07-06T02:49:04.709Z,984.87
2018-07-06T02:50:04.682Z,984.84
2018-07-06T02:51:04.649Z,984.81
2018-07-06T02:52:04.609Z,984.82
2018-07-06T02:53:04.580Z,984.81
2018-07-06T02:54:04.545Z,984.84
2018-07-06T02:55:04.551Z,984.83
2018-07-06T02:56:04.479Z,984.85
2018-07-06T02:57:04.445Z,984.84
2018-07-06T02:58:04.407Z,984.85
2018-07-06T02:59:04.380Z,984.85
2018-07-06T03:00:04.340Z,984.87
2018-07-06T03:01:04.308Z,984.86
2018-07-06T03:02:04.320Z,984.87
2018-07-06T03:03:04.291Z,984.93
2018-07-06T03:04:04.214Z,984.86
2018-07-06T03:05:04.177Z,984.91
2018-07-06T03:06:04.184Z,984.94
2018-07-06T03:07:04.102Z,984.94
2018-07-06T03:08:04.074Z,984.90
2018-07-06T03:09:04.054Z,984.94
2018-07-06T03:10:04.006Z,984.91
2018-07-06T03:11:03.969Z,984.91
2018-07-06T03:12:03.937Z,984.96
2018-07-06T03:13:03.903Z,984.99
2018-07-06T03:14:03.870Z,984.98
2018-07-06T03:15:03.846Z,985.02
2018-07-06T03:16:03.806Z,985.00
2018-07-06T03:17:03.770Z,985.02
2018-07-06T03:18:03.733Z,985.04
2018-07-06T03:19:03.695Z,985.03
2018-07-06T03:20:03.666Z,985.02
2018-07-06T03:21:03.633Z,985.03
2018-07-06T03:22:03.598Z,985.06
2018-07-06T03:23:03.571Z,985.04
2018-07-06T03:24:03.529Z,985.03
2018-07-06T03:25:03.494Z,985.03
2018-07-06T03:26:03.464Z,985.06
2018-07-06T03:27:03.431Z,985.06
2018-07-06T03:28:03.415Z,985.09
2018-07-06T03:29:03.362Z,985.05
2018-07-06T03:30:03.334Z,985.12
2018-07-06T03:31:03.291Z,985.10
2018-07-06T03:32:03.253Z,985.07
2018-07-06T03:33:03.224Z,985.09
2018-07-06T03:34:03.191Z,985.10
2018-07-06T03:35:03.159Z,985.11
2018-07-06T03:36:03.125Z,985.13
2018-07-06T03:37:03.086Z,985.11
2018-07-06T03:38:03.055Z,985.14
2018-07-06T03:39:03.015Z,985.09
2018-07-06T03:40:02.985Z,985.12
2018-07-06T03:41:02.953Z,985.13
2018-07-06T03:42:02.916Z,985.08
2018-07-06T03:43:02.878Z,985.11
2018-07-06T03:44:02.847Z,985.09
2018-07-06T03:45:02.816Z,985.11
2018-07-06T03:46:02.798Z,985.14
2018-07-06T03:47:02.761Z,985.13
2018-07-06T03:48:02.756Z,985.14
2018-07-06T03:49:02.679Z,985.13
2018-07-06T03:50:02.644Z,985.13
2018-07-06T03:51:02.609Z,985.17
2018-07-06T03:52:02.575Z,985.14
2018-07-06T04:09:25.286Z,985.28
2018-07-06T04:10:25.205Z,985.33
2018-07-06T04:11:25.164Z,985.30
2018-07-06T04:12:25.144Z,985.31
2018-07-06T04:13:25.084Z,985.33
2018-07-06T04:14:25.044Z,985.31
2018-07-06T04:15:25.035Z,985.32
2018-07-06T04:16:24.972Z,985.32
2018-07-06T04:17:24.945Z,985.32
2018-07-06T04:18:24.902Z,985.36
2018-07-06T04:19:24.864Z,985.37
2018-07-06T04:20:24.827Z,985.39
2018-07-06T04:21:24.795Z,985.39
2018-07-06T04:22:24.760Z,985.39
2018-07-06T04:23:24.723Z,985.42
2018-07-06T04:24:24.689Z,985.42
2018-07-06T04:25:24.651Z,985.45
2018-07-06T04:26:24.684Z,985.41
2018-07-06T04:27:24.580Z,985.44
2018-07-06T04:28:24.550Z,985.45
2018-07-06T04:29:24.516Z,985.47
2018-07-06T04:30:24.480Z,985.46
2018-07-06T04:31:24.445Z,985.48
2018-07-06T04:32:24.412Z,985.53
2018-07-06T04:33:24.375Z,985.51
2018-07-06T04:34:24.338Z,985.55
2018-07-06T04:35:24.309Z,985.52
2018-07-06T04:36:24.272Z,985.54
2018-07-06T04:37:24.238Z,985.57
2018-07-06T04:38:24.197Z,985.56
2018-07-06T04:39:24.163Z,985.56
2018-07-06T04:40:24.134Z,985.61
2018-07-06T04:41:24.100Z,985.59
2018-07-06T04:42:24.070Z,985.58
2018-07-06T04:43:24.039Z,985.58
2018-07-06T04:44:24.002Z,985.57
2018-07-06T04:45:23.961Z,985.59
2018-07-06T04:46:23.926Z,985.63
2018-07-06T04:47:23.893Z,985.62
2018-07-06T04:48:23.861Z,985.64
2018-07-06T04:49:23.829Z,985.65
2018-07-06T04:50:23.798Z,985.64
2018-07-06T04:51:23.757Z,985.70
2018-07-06T04:52:23.725Z,985.69
2018-07-06T04:53:23.699Z,985.73
2018-07-06T04:54:23.659Z,985.72
2018-07-06T04:55:23.627Z,985.72
2018-07-06T04:56:23.592Z,985.72
2018-07-06T04:57:23.557Z,985.74
2018-07-06T04:58:23.522Z,985.75
2018-07-06T04:59:23.487Z,985.71
2018-07-06T05:00:23.458Z,985.78
2018-07-06T05:01:23.423Z,985.76
2018-07-06T05:02:23.390Z,985.80
2018-07-06T05:03:23.358Z,985.80
2018-07-06T05:04:23.322Z,985.78
2018-07-06T05:05:23.292Z,985.80
2018-07-06T05:06:23.249Z,985.80
2018-07-06T05:07:23.222Z,985.81
2018-07-06T05:08:23.186Z,985.83
2018-07-06T05:09:23.150Z,985.82
2018-07-06T05:10:23.115Z,985.86
2018-07-06T05:11:23.079Z,985.83
2018-07-06T05:12:23.055Z,985.85
2018-07-06T05:13:23.023Z,985.87
2018-07-06T05:14:22.994Z,985.87
2018-07-06T05:15:22.953Z,985.90
2018-07-06T05:16:22.927Z,985.98
2018-07-06T05:17:22.883Z,985.98
2018-07-06T05:18:22.852Z,986.03
2018-07-06T05:19:22.815Z,986.00
2018-07-06T05:20:22.792Z,986.10
2018-07-06T05:21:22.754Z,986.12
2018-07-06T05:22:22.716Z,986.09
2018-07-06T05:23:22.682Z,986.06
2018-07-06T05:24:22.650Z,986.06
2018-07-06T05:25:22.619Z,986.09
2018-07-06T05:26:22.585Z,986.11
2018-07-06T05:27:22.557Z,986.07
2018-07-06T05:28:22.519Z,986.08
2018-07-06T05:29:22.484Z,986.11
2018-07-06T05:30:22.443Z,986.12
2018-07-06T05:31:22.416Z,986.11
2018-07-06T05:32:22.383Z,986.16
2018-07-06T05:33:22.353Z,986.09
2018-07-06T05:34:22.320Z,986.11
2018-07-06T05:35:22.285Z,986.17
2018-07-06T05:36:22.254Z,986.18
2018-07-06T05:37:22.215Z,986.19
2018-07-06T05:38:22.183Z,986.22
2018-07-06T05:39:22.152Z,986.22
2018-07-06T05:40:22.122Z,986.25
2018-07-06T05:41:22.086Z,986.21
2018-07-06T05:42:22.051Z,986.20
2018-07-06T05:43:22.018Z,986.24
2018-07-06T05:44:21.982Z,986.18
2018-07-06T05:45:21.956Z,986.19
2018-07-06T05:46:21.939Z,986.24
2018-07-06T05:47:21.887Z,986.25
2018-07-06T05:48:21.857Z,986.23
2018-07-06T05:49:21.823Z,986.29
2018-07-06T05:50:21.785Z,986.30
2018-07-06T05:51:21.753Z,986.27
2018-07-06T05:52:21.718Z,986.28
2018-07-06T05:53:21.690Z,986.27
2018-07-06T05:54:21.659Z,986.30
2018-07-06T05:55:21.621Z,986.30
2018-07-06T05:56:21.596Z,986.29
2018-07-06T05:57:21.560Z,986.29
2018-07-06T05:58:21.525Z,986.29
2018-07-06T05:59:21.527Z,986.31
2018-07-06T06:00:21.461Z,986.32
2018-07-06T06:01:21.424Z,986.32
2018-07-06T06:02:21.392Z,986.35
2018-07-06T06:03:21.359Z,986.35
2018-07-06T06:04:21.324Z,986.42
2018-07-06T06:05:21.299Z,986.42
2018-07-06T06:06:21.270Z,986.39
2018-07-06T06:07:21.229Z,986.45
2018-07-06T06:08:21.198Z,986.46
2018-07-06T06:09:21.167Z,986.45
2018-07-06T06:10:21.130Z,986.49
2018-07-06T06:11:21.101Z,986.48
2018-07-06T06:12:21.067Z,986.52
2018-07-06T06:13:21.032Z,986.51
2018-07-06T06:14:21.005Z,986.51
2018-07-06T06:15:20.965Z,986.50
2018-07-06T06:16:20.930Z,986.51
2018-07-06T06:17:20.901Z,986.54
2018-07-06T06:18:20.867Z,986.53
2018-07-06T06:19:20.836Z,986.50
2018-07-06T06:20:20.808Z,986.55
2018-07-06T06:21:20.764Z,986.59
2018-07-06T06:22:20.730Z,986.59
2018-07-06T06:23:20.698Z,986.63
2018-07-06T06:24:20.665Z,986.59
2018-07-06T06:25:20.638Z,986.59
2018-07-06T06:26:20.626Z,986.62
2018-07-06T06:27:20.570Z,986.62
2018-07-06T06:28:20.534Z,986.63
2018-07-06T06:29:20.505Z,986.63
2018-07-06T06:30:20.470Z,986.66
2018-07-06T06:31:20.438Z,986.64
2018-07-06T06:32:20.409Z,986.69
2018-07-06T06:33:20.434Z,986.67
2018-07-06T06:34:20.338Z,986.72
2018-07-06T06:35:20.303Z,986.70
2018-07-06T06:36:20.270Z,986.72
2018-07-06T06:37:20.248Z,986.65
2018-07-06T06:38:20.249Z,986.74
2018-07-06T06:39:20.212Z,986.74
2018-07-06T06:40:20.142Z,986.73
2018-07-06T06:41:20.105Z,986.71
2018-07-06T06:42:20.073Z,986.76
2018-07-06T06:43:20.041Z,986.79
2018-07-06T06:44:20.016Z,986.84
2018-07-06T06:45:19.973Z,986.81
2018-07-06T06:46:19.942Z,986.80
2018-07-06T06:47:19.915Z,986.83
2018-07-06T06:48:19.874Z,986.85
2018-07-06T06:49:19.845Z,986.88
2018-07-06T06:50:19.812Z,986.87
2018-07-06T06:51:19.774Z,986.85
2018-07-06T06:52:19.751Z,986.84
2018-07-06T06:53:19.714Z,986.86
2018-07-06T06:54:19.728Z,986.87
2018-07-06T06:55:19.656Z,986.87
2018-07-06T06:56:19.613Z,986.87
2018-07-06T06:57:19.616Z,986.87
2018-07-06T06:58:19.546Z,986.92
2018-07-06T06:59:19.520Z,986.87
2018-07-06T07:00:21.150Z,986.90
2018-07-06T07:01:19.455Z,986.83
2018-07-06T07:02:19.419Z,986.89
2018-07-06T07:03:19.382Z,986.90
2018-07-06T07:04:19.349Z,986.92
2018-07-06T07:05:19.334Z,986.93
2018-07-06T07:06:19.287Z,986.95
2018-07-06T07:07:19.252Z,986.93
2018-07-06T07:08:19.210Z,986.96
2018-07-06T07:09:19.253Z,986.97
2018-07-06T07:10:19.159Z,986.94
2018-07-06T07:11:19.125Z,986.95
2018-07-06T07:12:19.089Z,986.96
2018-07-06T07:13:19.046Z,986.94
2018-07-06T07:14:19.020Z,986.93
2018-07-06T07:15:18.983Z,986.92
2018-07-06T07:16:18.954Z,986.94
2018-07-06T07:17:18.915Z,986.96
2018-07-06T07:18:18.887Z,987.00
2018-07-06T07:19:18.852Z,986.97
2018-07-06T07:20:18.856Z,987.00
2018-07-06T07:21:18.790Z,987.00
2018-07-06T07:22:18.761Z,986.98
2018-07-06T07:23:18.727Z,986.98
2018-07-06T07:24:18.704Z,986.96
2018-07-06T07:25:18.652Z,986.97
2018-07-06T07:26:18.622Z,987.02
2018-07-06T07:27:18.586Z,987.01
2018-07-06T07:28:18.550Z,987.08
2018-07-06T07:29:18.523Z,987.04
2018-07-06T07:30:18.489Z,987.02
2018-07-06T07:31:18.460Z,987.04
2018-07-06T07:32:18.417Z,987.02
2018-07-06T07:33:18.408Z,987.06
2018-07-06T07:34:18.356Z,987.06
2018-07-06T07:35:18.322Z,987.08
2018-07-06T07:36:18.290Z,987.09
2018-07-06T07:37:18.252Z,987.11
2018-07-06T07:38:18.222Z,987.08
2018-07-06T07:39:18.192Z,987.13
2018-07-06T07:40:18.153Z,987.09
2018-07-06T07:41:18.125Z,987.07
2018-07-06T07:42:18.092Z,987.11
2018-07-06T07:43:18.056Z,987.11
2018-07-06T07:44:18.025Z,987.13
2018-07-06T07:45:17.988Z,987.13
2018-07-06T07:46:17.959Z,987.10
2018-07-06T07:47:17.926Z,987.14
2018-07-06T07:48:17.893Z,987.14
2018-07-06T07:49:17.855Z,987.18
2018-07-06T07:50:17.822Z,987.17
2018-07-06T07:51:17.790Z,987.18
2018-07-06T07:52:17.757Z,987.22
2018-07-06T07:53:17.732Z,987.24
2018-07-06T07:54:17.694Z,987.19
2018-07-06T07:55:17.662Z,987.26
2018-07-06T07:56:17.634Z,987.25
2018-07-06T07:57:17.594Z,987.28
2018-07-06T07:58:17.558Z,987.29
2018-07-06T07:59:17.529Z,987.33
2018-07-06T08:00:17.498Z,987.27
2018-07-06T08:01:17.522Z,987.26
2018-07-06T08:02:17.433Z,987.28
2018-07-06T08:03:17.397Z,987.30
2018-07-06T08:04:17.364Z,987.30
2018-07-06T08:05:17.360Z,987.27
2018-07-06T08:06:17.303Z,987.27
2018-07-06T08:07:17.269Z,987.34
2018-07-06T08:08:17.234Z,987.35
2018-07-06T08:09:17.198Z,987.34
2018-07-06T08:10:17.164Z,987.37
2018-07-06T08:11:17.132Z,987.39
2018-07-06T08:12:17.096Z,987.39
2018-07-06T08:13:17.070Z,987.39
2018-07-06T08:14:17.042Z,987.49
2018-07-06T08:15:17.005Z,987.42
2018-07-06T08:16:16.971Z,987.39
2018-07-06T08:17:16.935Z,987.38
2018-07-06T08:18:16.957Z,987.45
2018-07-06T08:19:16.873Z,987.42
2018-07-06T08:20:16.841Z,987.41
2018-07-06T08:21:16.804Z,987.49
2018-07-06T08:22:16.771Z,987.46
2018-07-06T08:23:16.741Z,987.48
2018-07-06T08:24:16.704Z,987.48
2018-07-06T08:25:16.676Z,987.47
2018-07-06T08:26:16.649Z,987.51
2018-07-06T08:27:16.612Z,987.49
2018-07-06T08:28:16.579Z,987.50
2018-07-06T08:29:16.558Z,987.47
2018-07-06T08:30:16.565Z,987.51
2018-07-06T08:31:16.478Z,987.56
2018-07-06T08:32:16.450Z,987.55
2018-07-06T08:33:16.438Z,987.52
2018-07-06T08:34:16.381Z,987.58
2018-07-06T08:35:16.348Z,987.57
2018-07-06T08:36:16.314Z,987.59
2018-07-06T08:37:16.293Z,987.63
2018-07-06T08:38:16.252Z,987.60
2018-07-06T08:39:16.224Z,987.62
2018-07-06T08:40:16.192Z,987.55
2018-07-06T08:41:16.152Z,987.58
2018-07-06T08:42:16.120Z,987.59
2018-07-06T08:43:16.087Z,987.59
2018-07-06T08:44:16.054Z,987.63
2018-07-06T08:45:16.029Z,987.76
2018-07-06T08:46:15.991Z,987.80
2018-07-06T08:47:15.960Z,987.72
2018-07-06T08:48:15.930Z,987.73
2018-07-06T08:49:15.893Z,987.75
2018-07-06T08:50:15.934Z,987.72
2018-07-06T08:51:15.833Z,987.75
2018-07-06T08:52:15.807Z,987.83
2018-07-06T08:53:15.780Z,987.82
2018-07-06T08:54:15.741Z,987.79
2018-07-06T08:55:15.699Z,987.77
2018-07-06T08:56:15.674Z,987.81
2018-07-06T08:57:15.641Z,987.82
2018-07-06T08:58:15.607Z,987.82
2018-07-06T08:59:15.573Z,987.89
2018-07-06T09:00:15.542Z,987.92
2018-07-06T09:01:15.506Z,987.93
2018-07-06T09:02:15.478Z,987.90
2018-07-06T09:03:15.442Z,987.99
2018-07-06T09:04:15.511Z,988.03
2018-07-06T09:05:15.385Z,987.95
2018-07-06T09:06:15.347Z,987.96
2018-07-06T09:07:15.323Z,987.97
2018-07-06T09:08:15.299Z,987.93
2018-07-06T09:09:15.303Z,987.94
2018-07-06T09:10:15.219Z,987.89
2018-07-06T09:11:15.184Z,987.88
2018-07-06T09:12:15.156Z,987.89
2018-07-06T09:13:15.119Z,987.94
2018-07-06T09:14:15.094Z,988.07
2018-07-06T09:15:15.061Z,988.05
2018-07-06T09:16:15.028Z,988.05
2018-07-06T09:17:15.001Z,988.04
2018-07-06T09:18:14.965Z,988.02
2018-07-06T09:19:14.932Z,987.96
2018-07-06T09:20:14.943Z,988.00
2018-07-06T09:21:14.863Z,987.98
2018-07-06T09:22:14.836Z,988.00
2018-07-06T09:23:14.803Z,987.98
2018-07-06T09:24:14.827Z,988.13
2018-07-06T09:25:14.744Z,988.16
2018-07-06T09:26:14.853Z,988.17
2018-07-06T09:27:14.675Z,988.02
2018-07-06T09:28:14.637Z,988.11
2018-07-06T09:29:14.613Z,988.05
2018-07-06T09:30:14.580Z,988.16
2018-07-06T09:31:14.549Z,988.16
2018-07-06T09:32:14.518Z,988.15
2018-07-06T09:33:14.479Z,988.18
2018-07-06T09:34:14.452Z,988.19
2018-07-06T09:35:14.419Z,988.16
2018-07-06T09:36:14.387Z,988.14
2018-07-06T09:37:14.360Z,988.14
2018-07-06T09:38:14.328Z,988.11
2018-07-06T09:39:14.292Z,988.18
2018-07-06T09:40:14.264Z,988.20
2018-07-06T09:41:14.233Z,988.16
2018-07-06T09:42:14.200Z,988.21
2018-07-06T09:43:14.168Z,988.23
2018-07-06T09:44:14.138Z,988.25
2018-07-06T09:45:14.100Z,988.28
2018-07-06T09:46:14.075Z,988.23
2018-07-06T09:47:14.041Z,988.27
2018-07-06T09:48:14.010Z,988.27
2018-07-06T09:49:13.981Z,988.24
2018-07-06T09:50:13.949Z,988.24
2018-07-06T09:51:13.917Z,988.31
2018-07-06T09:52:13.885Z,988.31
2018-07-06T09:53:13.851Z,988.25
2018-07-06T09:54:13.816Z,988.23
2018-07-06T09:55:13.794Z,988.22
2018-07-06T09:56:13.856Z,988.10
2018-07-06T09:57:13.726Z,988.16
2018-07-06T09:58:13.690Z,988.24
2018-07-06T09:59:13.665Z,988.26
2018-07-06T10:00:13.633Z,988.22
2018-07-06T10:01:13.604Z,988.12
2018-07-06T10:02:13.574Z,988.22
2018-07-06T10:03:13.542Z,988.24
2018-07-06T10:04:13.514Z,988.17
2018-07-06T10:05:13.477Z,988.19
2018-07-06T10:06:13.442Z,988.14
2018-07-06T10:07:13.410Z,988.11
2018-07-06T10:08:13.382Z,988.07
2018-07-06T10:22:08.385Z,988.17
2018-07-06T10:23:08.302Z,988.13
2018-07-06T10:24:08.269Z,988.13
2018-07-06T10:25:08.230Z,988.15
2018-07-06T10:26:08.192Z,988.18
2018-07-06T10:27:08.165Z,988.11
2018-07-06T10:28:08.128Z,988.17
2018-07-06T10:29:08.090Z,988.20
2018-07-06T10:30:08.059Z,988.17
2018-07-06T10:31:08.029Z,988.17
2018-07-06T10:32:08.024Z,988.14
2018-07-06T10:33:08.044Z,988.13
2018-07-06T10:34:07.932Z,988.08
2018-07-06T10:35:07.895Z,988.08
2018-07-06T10:36:07.862Z,988.08
2018-07-06T10:37:07.836Z,988.10
2018-07-06T10:38:07.803Z,988.10
2018-07-06T10:39:07.771Z,988.11
2018-07-06T10:40:07.746Z,988.12
2018-07-06T10:41:07.707Z,988.11
2018-07-06T10:42:07.718Z,988.15
2018-07-06T10:43:07.644Z,988.13
2018-07-06T10:44:07.615Z,988.14
2018-07-06T10:45:07.590Z,988.11
2018-07-06T10:46:07.551Z,988.12
2018-07-06T10:47:07.517Z,988.13
2018-07-06T10:48:07.486Z,988.14
2018-07-06T10:49:07.451Z,988.11
2018-07-06T10:50:07.425Z,988.13
2018-07-06T10:51:07.402Z,988.11
2018-07-06T10:52:07.365Z,988.15
2018-07-06T10:53:07.325Z,988.15
2018-07-06T10:54:07.304Z,988.22
2018-07-06T10:55:07.272Z,988.15
2018-07-06T10:56:07.242Z,988.17
2018-07-06T10:57:07.213Z,988.20
2018-07-06T10:58:07.180Z,988.22
2018-07-06T10:59:07.146Z,988.17
2018-07-06T11:00:07.110Z,988.13
2018-07-06T11:01:07.081Z,988.15
2018-07-06T11:02:07.056Z,988.15
2018-07-06T11:03:07.026Z,988.17
2018-07-06T11:04:07.003Z,988.15
2018-07-06T11:05:07.131Z,988.20
2018-07-06T11:06:06.934Z,988.15
2018-07-06T11:07:06.904Z,988.18
2018-07-06T11:08:06.871Z,988.16
2018-07-06T11:09:06.846Z,988.15
2018-07-06T11:10:06.817Z,988.11
2018-07-06T11:11:06.788Z,988.10
2018-07-06T11:12:06.749Z,988.12
2018-07-06T11:13:06.716Z,988.12
2018-07-06T11:14:06.689Z,988.06
2018-07-06T11:15:06.660Z,988.10
2018-07-06T11:16:06.632Z,988.08
2018-07-06T11:17:06.601Z,988.13
2018-07-06T11:18:06.568Z,988.10
2018-07-06T11:19:06.543Z,988.09
2018-07-06T11:20:06.502Z,988.10
2018-07-06T11:21:06.472Z,988.05
2018-07-06T11:22:06.449Z,988.06
2018-07-06T11:23:06.417Z,988.05
2018-07-06T11:24:06.388Z,988.07
2018-07-06T11:25:06.416Z,988.08
2018-07-06T11:26:06.337Z,988.10
2018-07-06T11:27:06.295Z,988.12
2018-07-06T11:28:06.264Z,988.09
2018-07-06T11:29:06.239Z,988.07
2018-07-06T11:30:06.207Z,988.10
2018-07-06T11:31:06.174Z,988.06
2018-07-06T11:32:06.151Z,988.06
2018-07-06T11:33:06.109Z,988.12
2018-07-06T11:34:06.084Z,988.01
2018-07-06T11:35:06.072Z,988.04
2018-07-06T11:36:06.038Z,988.07
2018-07-06T11:37:05.999Z,988.11
2018-07-06T11:38:06.014Z,988.10
2018-07-06T11:39:05.933Z,988.14
2018-07-06T11:40:05.903Z,988.12
2018-07-06T11:41:05.887Z,988.08
2018-07-06T11:42:06.625Z,988.09
2018-07-06T11:43:05.818Z,988.06
2018-07-06T11:44:05.788Z,988.08
2018-07-06T11:45:05.801Z,988.09
2018-07-06T11:46:05.724Z,988.08
2018-07-06T11:47:05.701Z,988.11
2018-07-06T11:48:05.672Z,988.09
2018-07-06T11:49:05.641Z,988.06
2018-07-06T11:50:05.608Z,988.08
2018-07-06T11:51:05.680Z,988.08
2018-07-06T11:52:05.546Z,988.02
2018-07-06T11:53:05.514Z,988.09
2018-07-06T11:54:05.529Z,988.06
2018-07-06T11:55:05.459Z,988.06
2018-07-06T11:56:05.505Z,988.06
2018-07-06T11:57:05.394Z,988.03
2018-07-06T11:58:05.373Z,988.07
2018-07-06T11:59:05.343Z,988.07
2018-07-06T12:00:05.313Z,988.05
2018-07-06T12:01:05.285Z,988.05
2018-07-06T12:02:05.256Z,988.06
2018-07-06T12:03:05.220Z,988.07
2018-07-06T12:04:05.210Z,988.10
2018-07-06T12:05:05.156Z,988.08
2018-07-06T12:06:05.132Z,988.07
2018-07-06T12:07:05.104Z,988.03
2018-07-06T12:08:05.075Z,988.07
2018-07-06T12:09:05.046Z,988.08
2018-07-06T12:10:05.017Z,988.15
2018-07-06T12:11:04.985Z,988.07
2018-07-06T12:12:04.955Z,988.06
2018-07-06T12:13:04.929Z,988.08
2018-07-06T12:14:04.898Z,988.10
2018-07-06T12:15:04.866Z,988.09
2018-07-06T12:16:04.834Z,988.06
2018-07-06T12:17:04.806Z,988.05
2018-07-06T12:18:04.778Z,988.04
2018-07-06T12:19:04.751Z,988.08
2018-07-06T12:20:04.728Z,988.14
2018-07-06T12:21:04.750Z,988.05
2018-07-06T12:22:04.662Z,988.03
2018-07-06T12:23:04.630Z,988.05
2018-07-06T12:24:04.600Z,988.03
2018-07-06T12:25:04.566Z,988.11
2018-07-06T12:26:04.543Z,988.09
2018-07-06T12:27:04.515Z,988.04
2018-07-06T12:28:04.488Z,988.03
2018-07-06T12:29:04.462Z,988.06
2018-07-06T12:30:04.427Z,988.03
2018-07-06T12:31:04.399Z,988.07
2018-07-06T12:32:04.371Z,988.04
2018-07-06T12:33:04.340Z,987.99
2018-07-06T12:34:04.311Z,988.09
2018-07-06T12:35:04.278Z,988.05
2018-07-06T12:36:04.245Z,988.14
2018-07-06T12:37:04.214Z,988.09
2018-07-06T12:38:04.193Z,988.08
2018-07-06T12:39:04.163Z,988.10
2018-07-06T12:40:04.136Z,988.10
2018-07-06T12:41:04.109Z,988.10
2018-07-06T12:42:04.073Z,988.09
2018-07-06T12:43:04.045Z,988.08
2018-07-06T12:44:04.011Z,988.11
2018-07-06T12:45:03.991Z,988.05
2018-07-06T12:46:03.960Z,988.05
2018-07-06T12:47:03.930Z,987.97
2018-07-06T12:48:03.896Z,988.00
2018-07-06T12:49:03.869Z,987.98
2018-07-06T12:50:03.842Z,987.98
2018-07-06T12:51:03.821Z,988.04
2018-07-06T12:52:03.789Z,988.09
2018-07-06T12:53:03.759Z,988.05
2018-07-06T12:54:03.727Z,988.10
2018-07-06T12:55:03.695Z,988.09
2018-07-06T12:56:03.668Z,988.09
2018-07-06T12:57:03.634Z,988.06